Pilot Rock, Oregon
Current Conditions -  °F | °C
As of 4:53 PM on Sunday 21 Dec 2014 (Local Time) from KPDT Reporting Station
Scattered Clouds Scattered Clouds  
Wind Chill:   Ceiling: Unl
Heat Index:   Visibility: 10mi
Dew Point:   Wind: 14mph
Humidity: 69%   Direction: 250°WSW
Pressure: 30.02"   Gusts: 25mph
Location:  45.48°N, 118.83°W
Report Text: KPDT 220053Z 25012G22KT 10SM SCT110 09/04 A3002 RMK AO2 PK WND 26026/0001 SLP162 T00940039
Loading
Personal Weather Stations






























Interactive Weather Map New forecast layout! Learn more

10-Day Weather Forecast

Advertisements
Track Severe Weather on mobile